sensor_id;sensor_type;location;lat;lon;timestamp;pressure;altitude;pressure_sealevel;temperature;humidity
71165;BME280;58859;55.132;-1.586;2023-05-23T00:02:21;102329.75;;;17.67;100.00
71165;BME280;58859;55.132;-1.586;2023-05-23T00:04:47;102326.09;;;18.20;100.00
71165;BME280;58859;55.132;-1.586;2023-05-23T00:07:13;102332.69;;;18.16;100.00
71165;BME280;58859;55.132;-1.586;2023-05-23T00:09:39;102330.72;;;18.52;100.00
71165;BME280;58859;55.132;-1.586;2023-05-23T00:12:04;102327.28;;;18.59;100.00
71165;BME280;58859;55.132;-1.586;2023-05-23T00:14:31;102330.94;;;18.66;100.00
71165;BME280;58859;55.132;-1.586;2023-05-23T00:16:58;102338.78;;;19.00;100.00
71165;BME280;58859;55.132;-1.586;2023-05-23T00:19:24;102326.22;;;18.78;100.00
71165;BME280;58859;55.132;-1.586;2023-05-23T00:21:50;102329.16;;;18.33;100.00
71165;BME280;58859;55.132;-1.586;2023-05-23T00:24:17;102338.03;;;18.74;100.00
71165;BME280;58859;55.132;-1.586;2023-05-23T00:26:45;102329.47;;;18.72;100.00
71165;BME280;58859;55.132;-1.586;2023-05-23T00:29:11;102328.78;;;18.62;100.00
71165;BME280;58859;55.132;-1.586;2023-05-23T00:31:43;102320.78;;;18.87;100.00
71165;BME280;58859;55.132;-1.586;2023-05-23T00:34:12;102335.50;;;19.06;100.00
71165;BME280;58859;55.132;-1.586;2023-05-23T00:36:38;102322.91;;;18.76;100.00
71165;BME280;58859;55.132;-1.586;2023-05-23T00:39:06;102322.25;;;18.82;100.00
71165;BME280;58859;55.132;-1.586;2023-05-23T00:41:31;102326.66;;;18.65;100.00
71165;BME280;58859;55.132;-1.586;2023-05-23T00:43:57;102338.38;;;18.71;100.00
71165;BME280;58859;55.132;-1.586;2023-05-23T00:46:25;102327.50;;;17.55;100.00
71165;BME280;58859;55.132;-1.586;2023-05-23T00:48:50;102325.78;;;17.10;100.00
71165;BME280;58859;55.132;-1.586;2023-05-23T00:51:16;102323.09;;;16.48;100.00
71165;BME280;58859;55.132;-1.586;2023-05-23T00:53:41;102331.41;;;18.28;100.00
71165;BME280;58859;55.132;-1.586;2023-05-23T00:56:07;102330.81;;;17.21;100.00
71165;BME280;58859;55.132;-1.586;2023-05-23T00:58:33;102328.06;;;17.84;100.00
71165;BME280;58859;55.132;-1.586;2023-05-23T01:00:58;102327.47;;;17.72;100.00
71165;BME280;58859;55.132;-1.586;2023-05-23T01:03:24;102331.09;;;18.31;100.00
71165;BME280;58859;55.132;-1.586;2023-05-23T01:05:53;102326.88;;;18.46;100.00
71165;BME280;58859;55.132;-1.586;2023-05-23T01:08:20;102330.66;;;18.85;100.00
71165;BME280;58859;55.132;-1.586;2023-05-23T01:10:46;102345.19;;;18.81;100.00
71165;BME280;58859;55.132;-1.586;2023-05-23T01:16:49;102342.41;;;18.49;100.00
71165;BME280;58859;55.132;-1.586;2023-05-23T01:21:46;102335.25;;;18.67;100.00
71165;BME280;58859;55.132;-1.586;2023-05-23T01:27:00;102332.00;;;18.81;100.00
71165;BME280;58859;55.132;-1.586;2023-05-23T01:29:33;102320.84;;;18.54;100.00
71165;BME280;58859;55.132;-1.586;2023-05-23T01:32:04;102318.91;;;18.56;100.00
71165;BME280;58859;55.132;-1.586;2023-05-23T01:34:34;102330.66;;;18.85;100.00
71165;BME280;58859;55.132;-1.586;2023-05-23T01:36:59;102325.59;;;18.92;100.00
71165;BME280;58859;55.132;-1.586;2023-05-23T01:39:25;102320.22;;;18.60;100.00
71165;BME280;58859;55.132;-1.586;2023-05-23T01:41:51;102328.44;;;18.57;100.00
71165;BME280;58859;55.132;-1.586;2023-05-23T01:44:19;102326.72;;;18.81;100.00
71165;BME280;58859;55.132;-1.586;2023-05-23T01:46:45;102318.72;;;18.57;100.00
71165;BME280;58859;55.132;-1.586;2023-05-23T01:49:12;102330.81;;;18.42;100.00
71165;BME280;58859;55.132;-1.586;2023-05-23T01:51:39;102322.22;;;18.32;100.00
71165;BME280;58859;55.132;-1.586;2023-05-23T01:54:05;102340.78;;;17.97;100.00
71165;BME280;58859;55.132;-1.586;2023-05-23T01:56:32;102340.13;;;18.54;100.00
71165;BME280;58859;55.132;-1.586;2023-05-23T01:58:57;102342.31;;;18.33;100.00
71165;BME280;58859;55.132;-1.586;2023-05-23T02:01:22;102338.38;;;18.37;100.00
71165;BME280;58859;55.132;-1.586;2023-05-23T02:03:48;102314.78;;;18.53;100.00
71165;BME280;58859;55.132;-1.586;2023-05-23T02:06:13;102339.50;;;18.68;100.00
71165;BME280;58859;55.132;-1.586;2023-05-23T02:08:39;102338.53;;;18.69;100.00
71165;BME280;58859;55.132;-1.586;2023-05-23T02:11:04;102336.38;;;18.31;100.00
71165;BME280;58859;55.132;-1.586;2023-05-23T02:13:32;102342.97;;;18.61;100.00
71165;BME280;58859;55.132;-1.586;2023-05-23T02:15:57;102347.31;;;18.78;100.00
71165;BME280;58859;55.132;-1.586;2023-05-23T02:18:23;102341.63;;;18.57;100.00
71165;BME280;58859;55.132;-1.586;2023-05-23T02:20:50;102354.16;;;18.63;100.00
71165;BME280;58859;55.132;-1.586;2023-05-23T02:23:16;102358.97;;;18.08;100.00
71165;BME280;58859;55.132;-1.586;2023-05-23T02:25:41;102357.41;;;18.49;100.00
71165;BME280;58859;55.132;-1.586;2023-05-23T02:28:06;102355.03;;;18.79;100.00
71165;BME280;58859;55.132;-1.586;2023-05-23T02:30:32;102357.34;;;18.82;100.00
71165;BME280;58859;55.132;-1.586;2023-05-23T02:32:57;102362.69;;;17.97;100.00
71165;BME280;58859;55.132;-1.586;2023-05-23T02:35:22;102363.56;;;18.73;100.00
71165;BME280;58859;55.132;-1.586;2023-05-23T02:37:48;102367.25;;;18.80;100.00
71165;BME280;58859;55.132;-1.586;2023-05-23T02:40:13;102358.75;;;18.53;100.00
71165;BME280;58859;55.132;-1.586;2023-05-23T02:42:39;102353.47;;;18.27;100.00
71165;BME280;58859;55.132;-1.586;2023-05-23T02:45:04;102365.81;;;18.26;100.00
71165;BME280;58859;55.132;-1.586;2023-05-23T02:47:30;102368.38;;;18.44;100.00
71165;BME280;58859;55.132;-1.586;2023-05-23T02:49:55;102367.34;;;17.60;100.00
71165;BME280;58859;55.132;-1.586;2023-05-23T02:52:21;102366.16;;;17.98;100.00
71165;BME280;58859;55.132;-1.586;2023-05-23T02:54:46;102364.41;;;17.63;100.00
71165;BME280;58859;55.132;-1.586;2023-05-23T02:57:11;102357.53;;;17.52;100.00
71165;BME280;58859;55.132;-1.586;2023-05-23T02:59:37;102369.84;;;18.38;100.00
71165;BME280;58859;55.132;-1.586;2023-05-23T03:02:02;102358.00;;;18.43;100.00
71165;BME280;58859;55.132;-1.586;2023-05-23T03:04:27;102359.81;;;18.16;100.00
71165;BME280;58859;55.132;-1.586;2023-05-23T03:06:53;102365.00;;;18.52;100.00
71165;BME280;58859;55.132;-1.586;2023-05-23T03:09:19;102365.22;;;18.66;100.00
71165;BME280;58859;55.132;-1.586;2023-05-23T03:11:44;102369.03;;;18.72;100.00
71165;BME280;58859;55.132;-1.586;2023-05-23T03:14:10;102374.44;;;18.70;100.00
71165;BME280;58859;55.132;-1.586;2023-05-23T03:16:35;102358.78;;;18.35;100.00
71165;BME280;58859;55.132;-1.586;2023-05-23T03:19:01;102367.31;;;18.55;100.00
71165;BME280;58859;55.132;-1.586;2023-05-23T03:21:26;102372.91;;;18.60;100.00
71165;BME280;58859;55.132;-1.586;2023-05-23T03:23:52;102366.88;;;18.67;100.00
71165;BME280;58859;55.132;-1.586;2023-05-23T03:26:18;102373.97;;;18.75;100.00
71165;BME280;58859;55.132;-1.586;2023-05-23T03:28:43;102369.03;;;18.72;100.00
71165;BME280;58859;55.132;-1.586;2023-05-23T03:31:09;102372.97;;;18.42;100.00
71165;BME280;58859;55.132;-1.586;2023-05-23T03:33:34;102369.53;;;18.75;100.00
71165;BME280;58859;55.132;-1.586;2023-05-23T03:35:59;102358.28;;;18.31;100.00
71165;BME280;58859;55.132;-1.586;2023-05-23T03:38:26;102359.66;;;18.44;100.00
71165;BME280;58859;55.132;-1.586;2023-05-23T03:40:51;102361.84;;;17.36;100.00
71165;BME280;58859;55.132;-1.586;2023-05-23T03:43:17;102360.28;;;16.80;100.00
71165;BME280;58859;55.132;-1.586;2023-05-23T03:45:42;102357.09;;;17.74;100.00
71165;BME280;58859;55.132;-1.586;2023-05-23T03:48:07;102347.44;;;18.43;100.00
71165;BME280;58859;55.132;-1.586;2023-05-23T03:50:33;102358.97;;;18.67;100.00
71165;BME280;58859;55.132;-1.586;2023-05-23T03:52:58;102359.44;;;18.37;100.00
71165;BME280;58859;55.132;-1.586;2023-05-23T03:55:24;102342.88;;;18.45;100.00
71165;BME280;58859;55.132;-1.586;2023-05-23T03:57:50;102337.38;;;18.64;100.00
71165;BME280;58859;55.132;-1.586;2023-05-23T04:00:18;102340.66;;;18.66;100.00
71165;BME280;58859;55.132;-1.586;2023-05-23T04:02:44;102339.41;;;18.86;100.00
71165;BME280;58859;55.132;-1.586;2023-05-23T04:05:10;102341.44;;;18.50;100.00
71165;BME280;58859;55.132;-1.586;2023-05-23T04:07:36;102337.50;;;18.54;100.00
71165;BME280;58859;55.132;-1.586;2023-05-23T04:10:02;102325.78;;;18.49;100.00
71165;BME280;58859;55.132;-1.586;2023-05-23T04:12:28;102323.44;;;16.90;100.00
71165;BME280;58859;55.132;-1.586;2023-05-23T04:14:56;102322.66;;;17.94;100.00
71165;BME280;58859;55.132;-1.586;2023-05-23T04:17:22;102320.31;;;18.16;100.00
71165;BME280;58859;55.132;-1.586;2023-05-23T04:19:48;102314.75;;;18.19;100.00
71165;BME280;58859;55.132;-1.586;2023-05-23T04:22:15;102318.13;;;18.37;100.00
71165;BME280;58859;55.132;-1.586;2023-05-23T04:24:40;102319.56;;;18.58;100.00
71165;BME280;58859;55.132;-1.586;2023-05-23T04:27:05;102317.63;;;18.42;100.00
71165;BME280;58859;55.132;-1.586;2023-05-23T04:29:32;102329.06;;;17.91;100.00
71165;BME280;58859;55.132;-1.586;2023-05-23T04:31:57;102321.78;;;18.45;100.00
71165;BME280;58859;55.132;-1.586;2023-05-23T04:34:23;102316.63;;;18.35;100.00
71165;BME280;58859;55.132;-1.586;2023-05-23T04:36:48;102326.66;;;17.72;100.00
71165;BME280;58859;55.132;-1.586;2023-05-23T04:39:14;102320.59;;;17.36;100.00
71165;BME280;58859;55.132;-1.586;2023-05-23T04:41:41;102332.47;;;17.84;100.00
71165;BME280;58859;55.132;-1.586;2023-05-23T04:44:06;102336.03;;;18.00;100.00
71165;BME280;58859;55.132;-1.586;2023-05-23T04:46:34;102336.25;;;17.81;100.00
71165;BME280;58859;55.132;-1.586;2023-05-23T04:49:01;102333.13;;;17.42;100.00
71165;BME280;58859;55.132;-1.586;2023-05-23T04:51:27;102339.75;;;18.15;100.00
71165;BME280;58859;55.132;-1.586;2023-05-23T04:53:52;102340.34;;;18.01;100.00
71165;BME280;58859;55.132;-1.586;2023-05-23T04:56:18;102359.34;;;15.12;100.00
71165;BME280;58859;55.132;-1.586;2023-05-23T04:58:45;102346.91;;;17.36;100.00
71165;BME280;58859;55.132;-1.586;2023-05-23T05:01:11;102329.97;;;17.39;100.00
71165;BME280;58859;55.132;-1.586;2023-05-23T05:03:38;102333.88;;;17.96;100.00
71165;BME280;58859;55.132;-1.586;2023-05-23T05:06:04;102334.53;;;18.23;100.00
71165;BME280;58859;55.132;-1.586;2023-05-23T05:08:30;102334.47;;;16.93;100.00
71165;BME280;58859;55.132;-1.586;2023-05-23T05:10:55;102340.25;;;16.79;100.00
71165;BME280;58859;55.132;-1.586;2023-05-23T05:13:21;102340.78;;;17.71;100.00
71165;BME280;58859;55.132;-1.586;2023-05-23T05:15:46;102341.63;;;17.01;100.00
71165;BME280;58859;55.132;-1.586;2023-05-23T05:18:12;102337.28;;;16.64;100.00
71165;BME280;58859;55.132;-1.586;2023-05-23T05:20:38;102340.31;;;16.87;100.00
71165;BME280;58859;55.132;-1.586;2023-05-23T05:23:03;102329.50;;;17.78;100.00
71165;BME280;58859;55.132;-1.586;2023-05-23T05:25:29;102335.34;;;18.24;100.00
71165;BME280;58859;55.132;-1.586;2023-05-23T05:27:59;102339.00;;;18.65;100.00
71165;BME280;58859;55.132;-1.586;2023-05-23T05:30:26;102331.78;;;17.99;100.00
71165;BME280;58859;55.132;-1.586;2023-05-23T05:32:51;102331.56;;;18.52;100.00
71165;BME280;58859;55.132;-1.586;2023-05-23T05:35:17;102340.06;;;18.12;100.00
71165;BME280;58859;55.132;-1.586;2023-05-23T05:37:42;102323.66;;;17.93;100.00
71165;BME280;58859;55.132;-1.586;2023-05-23T05:40:08;102339.81;;;17.98;100.00
71165;BME280;58859;55.132;-1.586;2023-05-23T05:42:34;102334.91;;;17.77;100.00
71165;BME280;58859;55.132;-1.586;2023-05-23T05:44:59;102342.66;;;18.04;100.00
71165;BME280;58859;55.132;-1.586;2023-05-23T05:47:25;102343.59;;;17.95;100.00
71165;BME280;58859;55.132;-1.586;2023-05-23T05:49:51;102346.94;;;18.39;100.00
71165;BME280;58859;55.132;-1.586;2023-05-23T05:52:16;102345.94;;;18.06;100.00
71165;BME280;58859;55.132;-1.586;2023-05-23T05:54:42;102339.34;;;18.02;100.00
71165;BME280;58859;55.132;-1.586;2023-05-23T05:57:07;102342.03;;;17.59;100.00
71165;BME280;58859;55.132;-1.586;2023-05-23T05:59:33;102352.25;;;17.62;100.00
71165;BME280;58859;55.132;-1.586;2023-05-23T06:01:58;102347.44;;;18.76;100.00
71165;BME280;58859;55.132;-1.586;2023-05-23T06:04:23;102342.56;;;19.06;100.00
71165;BME280;58859;55.132;-1.586;2023-05-23T06:06:49;102343.88;;;19.02;100.00
71165;BME280;58859;55.132;-1.586;2023-05-23T06:09:15;102347.13;;;18.87;100.00
71165;BME280;58859;55.132;-1.586;2023-05-23T06:11:40;102336.84;;;18.60;100.00
71165;BME280;58859;55.132;-1.586;2023-05-23T06:14:06;102337.13;;;19.07;100.00
71165;BME280;58859;55.132;-1.586;2023-05-23T06:16:32;102346.97;;;17.44;100.00
71165;BME280;58859;55.132;-1.586;2023-05-23T06:18:57;102345.38;;;16.98;100.00
71165;BME280;58859;55.132;-1.586;2023-05-23T06:21:23;102349.50;;;17.71;100.00
71165;BME280;58859;55.132;-1.586;2023-05-23T06:23:48;102351.38;;;16.91;100.00
71165;BME280;58859;55.132;-1.586;2023-05-23T06:26:14;102352.44;;;17.33;100.00
71165;BME280;58859;55.132;-1.586;2023-05-23T06:28:39;102347.38;;;16.87;100.00
71165;BME280;58859;55.132;-1.586;2023-05-23T06:31:05;102345.53;;;17.50;100.00
71165;BME280;58859;55.132;-1.586;2023-05-23T06:33:31;102343.56;;;17.52;100.00
71165;BME280;58859;55.132;-1.586;2023-05-23T06:35:56;102338.09;;;18.14;100.00
71165;BME280;58859;55.132;-1.586;2023-05-23T06:38:22;102337.03;;;17.73;100.00
71165;BME280;58859;55.132;-1.586;2023-05-23T06:40:47;102331.88;;;17.90;100.00
71165;BME280;58859;55.132;-1.586;2023-05-23T06:43:12;102334.56;;;17.37;100.00
71165;BME280;58859;55.132;-1.586;2023-05-23T06:45:38;102334.19;;;19.18;100.00
71165;BME280;58859;55.132;-1.586;2023-05-23T06:48:03;102336.13;;;18.92;100.00
71165;BME280;58859;55.132;-1.586;2023-05-23T06:50:29;102343.19;;;18.75;100.00
71165;BME280;58859;55.132;-1.586;2023-05-23T06:52:55;102333.88;;;18.55;100.00
71165;BME280;58859;55.132;-1.586;2023-05-23T06:55:21;102330.56;;;19.19;100.00
71165;BME280;58859;55.132;-1.586;2023-05-23T06:57:47;102332.59;;;20.21;100.00
71165;BME280;58859;55.132;-1.586;2023-05-23T07:00:16;102335.44;;;20.27;100.00
71165;BME280;58859;55.132;-1.586;2023-05-23T07:02:42;102345.78;;;19.66;100.00
71165;BME280;58859;55.132;-1.586;2023-05-23T07:05:09;102336.53;;;20.80;100.00
71165;BME280;58859;55.132;-1.586;2023-05-23T07:07:35;102339.09;;;20.26;100.00
71165;BME280;58859;55.132;-1.586;2023-05-23T07:10:00;102335.22;;;20.76;100.00
71165;BME280;58859;55.132;-1.586;2023-05-23T07:12:25;102342.53;;;20.66;100.00
71165;BME280;58859;55.132;-1.586;2023-05-23T07:14:51;102352.88;;;21.06;100.00
71165;BME280;58859;55.132;-1.586;2023-05-23T07:17:16;102338.22;;;21.63;100.00
71165;BME280;58859;55.132;-1.586;2023-05-23T07:19:41;102341.03;;;22.28;100.00
71165;BME280;58859;55.132;-1.586;2023-05-23T07:22:07;102345.81;;;21.66;100.00
71165;BME280;58859;55.132;-1.586;2023-05-23T07:24:32;102335.41;;;21.65;100.00
71165;BME280;58859;55.132;-1.586;2023-05-23T07:26:57;102353.56;;;22.34;100.00
71165;BME280;58859;55.132;-1.586;2023-05-23T07:29:23;102347.81;;;21.87;100.00
71165;BME280;58859;55.132;-1.586;2023-05-23T07:31:48;102369.78;;;20.19;100.00
71165;BME280;58859;55.132;-1.586;2023-05-23T07:34:14;102350.38;;;19.56;100.00
71165;BME280;58859;55.132;-1.586;2023-05-23T07:36:39;102342.94;;;20.85;100.00
71165;BME280;58859;55.132;-1.586;2023-05-23T07:39:05;102346.31;;;21.85;100.00
71165;BME280;58859;55.132;-1.586;2023-05-23T07:41:31;102355.31;;;20.85;100.00
71165;BME280;58859;55.132;-1.586;2023-05-23T07:43:56;102350.56;;;21.56;100.00
71165;BME280;58859;55.132;-1.586;2023-05-23T07:46:22;102350.66;;;21.17;100.00
71165;BME280;58859;55.132;-1.586;2023-05-23T07:48:47;102350.56;;;22.23;100.00
71165;BME280;58859;55.132;-1.586;2023-05-23T07:51:13;102350.75;;;22.21;100.00
71165;BME280;58859;55.132;-1.586;2023-05-23T07:53:38;102348.72;;;21.94;100.00
71165;BME280;58859;55.132;-1.586;2023-05-23T07:56:05;102351.53;;;22.51;100.00
71165;BME280;58859;55.132;-1.586;2023-05-23T07:58:30;102356.53;;;21.73;100.00
71165;BME280;58859;55.132;-1.586;2023-05-23T08:00:56;102348.03;;;21.77;100.00
71165;BME280;58859;55.132;-1.586;2023-05-23T08:03:22;102358.78;;;21.99;100.00
71165;BME280;58859;55.132;-1.586;2023-05-23T08:05:47;102352.44;;;21.85;100.00
71165;BME280;58859;55.132;-1.586;2023-05-23T08:08:14;102344.75;;;22.78;100.00
71165;BME280;58859;55.132;-1.586;2023-05-23T08:10:39;102342.69;;;22.00;100.00
71165;BME280;58859;55.132;-1.586;2023-05-23T08:13:05;102341.94;;;21.92;100.00
71165;BME280;58859;55.132;-1.586;2023-05-23T08:15:31;102347.25;;;21.09;100.00
71165;BME280;58859;55.132;-1.586;2023-05-23T08:17:58;102340.06;;;21.77;100.00
71165;BME280;58859;55.132;-1.586;2023-05-23T08:20:25;102340.50;;;23.40;95.88
71165;BME280;58859;55.132;-1.586;2023-05-23T08:22:59;102337.13;;;22.39;100.00
71165;BME280;58859;55.132;-1.586;2023-05-23T08:25:25;102343.03;;;21.97;100.00
71165;BME280;58859;55.132;-1.586;2023-05-23T08:27:55;102336.44;;;22.52;98.34
71165;BME280;58859;55.132;-1.586;2023-05-23T08:30:21;102338.69;;;23.05;99.48
71165;BME280;58859;55.132;-1.586;2023-05-23T08:32:47;102326.25;;;22.84;93.38
71165;BME280;58859;55.132;-1.586;2023-05-23T08:35:13;102336.94;;;23.12;96.28
71165;BME280;58859;55.132;-1.586;2023-05-23T08:37:38;102332.44;;;22.70;90.28
71165;BME280;58859;55.132;-1.586;2023-05-23T08:40:06;102330.88;;;24.23;100.00
71165;BME280;58859;55.132;-1.586;2023-05-23T08:42:33;102329.38;;;24.61;89.78
71165;BME280;58859;55.132;-1.586;2023-05-23T08:44:58;102338.19;;;24.14;100.00
71165;BME280;58859;55.132;-1.586;2023-05-23T08:47:24;102337.19;;;22.46;89.15
71165;BME280;58859;55.132;-1.586;2023-05-23T08:49:51;102337.00;;;22.62;91.69
71165;BME280;58859;55.132;-1.586;2023-05-23T08:52:20;102338.88;;;23.25;90.79
71165;BME280;58859;55.132;-1.586;2023-05-23T08:54:49;102338.53;;;21.83;89.82
71165;BME280;58859;55.132;-1.586;2023-05-23T08:57:15;102331.66;;;22.76;89.35
71165;BME280;58859;55.132;-1.586;2023-05-23T08:59:41;102333.56;;;22.82;89.05
71165;BME280;58859;55.132;-1.586;2023-05-23T09:02:09;102334.81;;;23.43;84.51
71165;BME280;58859;55.132;-1.586;2023-05-23T09:04:38;102335.88;;;23.07;98.02
71165;BME280;58859;55.132;-1.586;2023-05-23T09:07:03;102329.88;;;23.40;100.00
71165;BME280;58859;55.132;-1.586;2023-05-23T09:09:29;102329.56;;;23.78;91.71
71165;BME280;58859;55.132;-1.586;2023-05-23T09:11:57;102330.88;;;22.47;91.94
71165;BME280;58859;55.132;-1.586;2023-05-23T09:14:23;102325.56;;;23.67;88.11
71165;BME280;58859;55.132;-1.586;2023-05-23T09:16:49;102318.63;;;23.38;88.72
71165;BME280;58859;55.132;-1.586;2023-05-23T09:19:14;102319.94;;;22.06;99.02
71165;BME280;58859;55.132;-1.586;2023-05-23T09:21:44;102312.34;;;23.74;100.00
71165;BME280;58859;55.132;-1.586;2023-05-23T09:24:10;102301.19;;;24.19;93.86
71165;BME280;58859;55.132;-1.586;2023-05-23T09:26:36;102311.94;;;22.50;100.00
71165;BME280;58859;55.132;-1.586;2023-05-23T09:29:04;102298.34;;;23.37;100.00
71165;BME280;58859;55.132;-1.586;2023-05-23T09:31:31;102287.19;;;23.70;94.68
71165;BME280;58859;55.132;-1.586;2023-05-23T09:33:57;102291.38;;;23.36;95.96
71165;BME280;58859;55.132;-1.586;2023-05-23T09:36:26;102297.34;;;23.94;100.00
71165;BME280;58859;55.132;-1.586;2023-05-23T09:38:53;102293.91;;;22.09;99.90
71165;BME280;58859;55.132;-1.586;2023-05-23T09:41:19;102298.06;;;23.47;96.77
71165;BME280;58859;55.132;-1.586;2023-05-23T09:43:50;102297.66;;;23.29;98.32
71165;BME280;58859;55.132;-1.586;2023-05-23T09:46:17;102300.22;;;21.19;100.00
71165;BME280;58859;55.132;-1.586;2023-05-23T09:48:49;102296.34;;;23.39;100.00
71165;BME280;58859;55.132;-1.586;2023-05-23T09:51:20;102298.13;;;22.54;100.00
71165;BME280;58859;55.132;-1.586;2023-05-23T09:53:46;102298.53;;;21.78;100.00
71165;BME280;58859;55.132;-1.586;2023-05-23T09:56:12;102297.28;;;21.89;100.00
71165;BME280;58859;55.132;-1.586;2023-05-23T09:58:43;102294.13;;;20.34;100.00
71165;BME280;58859;55.132;-1.586;2023-05-23T10:01:10;102290.56;;;21.78;100.00
71165;BME280;58859;55.132;-1.586;2023-05-23T10:06:14;102281.75;;;22.65;100.00
71165;BME280;58859;55.132;-1.586;2023-05-23T10:08:52;102284.69;;;21.91;100.00
71165;BME280;58859;55.132;-1.586;2023-05-23T10:14:09;102272.53;;;23.04;100.00
71165;BME280;58859;55.132;-1.586;2023-05-23T10:16:52;102274.59;;;23.29;100.00
71165;BME280;58859;55.132;-1.586;2023-05-23T10:19:47;102259.66;;;24.25;99.78
71165;BME280;58859;55.132;-1.586;2023-05-23T10:22:17;102265.84;;;22.86;100.00
71165;BME280;58859;55.132;-1.586;2023-05-23T10:24:45;102255.44;;;23.62;100.00
71165;BME280;58859;55.132;-1.586;2023-05-23T10:27:12;102251.56;;;23.98;96.19
71165;BME280;58859;55.132;-1.586;2023-05-23T10:29:38;102255.25;;;23.35;99.44
71165;BME280;58859;55.132;-1.586;2023-05-23T10:32:04;102255.91;;;23.72;95.80
71165;BME280;58859;55.132;-1.586;2023-05-23T10:37:35;102258.03;;;22.28;100.00
71165;BME280;58859;55.132;-1.586;2023-05-23T10:45:38;102245.19;;;23.31;91.58
71165;BME280;58859;55.132;-1.586;2023-05-23T10:48:19;102235.53;;;23.23;91.05
71165;BME280;58859;55.132;-1.586;2023-05-23T10:51:01;102245.56;;;22.79;90.58
71165;BME280;58859;55.132;-1.586;2023-05-23T10:53:30;102253.22;;;22.67;90.37
71165;BME280;58859;55.132;-1.586;2023-05-23T10:55:56;102233.03;;;24.12;90.10
71165;BME280;58859;55.132;-1.586;2023-05-23T10:58:21;102231.56;;;24.09;89.96
71165;BME280;58859;55.132;-1.586;2023-05-23T11:01:05;102227.84;;;24.57;88.65
71165;BME280;58859;55.132;-1.586;2023-05-23T11:06:37;102229.25;;;22.82;95.81
71165;BME280;58859;55.132;-1.586;2023-05-23T11:09:05;102234.78;;;23.57;91.62
71165;BME280;58859;55.132;-1.586;2023-05-23T11:17:17;102231.28;;;22.80;90.25
71165;BME280;58859;55.132;-1.586;2023-05-23T11:20:03;102232.00;;;23.16;88.56
71165;BME280;58859;55.132;-1.586;2023-05-23T11:22:35;102216.63;;;23.67;87.69
71165;BME280;58859;55.132;-1.586;2023-05-23T11:25:05;102215.19;;;24.06;87.99
71165;BME280;58859;55.132;-1.586;2023-05-23T11:27:33;102219.88;;;23.97;87.90
71165;BME280;58859;55.132;-1.586;2023-05-23T11:30:06;102230.22;;;22.39;94.59
71165;BME280;58859;55.132;-1.586;2023-05-23T11:32:32;102223.22;;;22.67;94.21
71165;BME280;58859;55.132;-1.586;2023-05-23T11:34:59;102223.16;;;22.81;91.33
71165;BME280;58859;55.132;-1.586;2023-05-23T11:37:26;102222.81;;;23.40;91.86
71165;BME280;58859;55.132;-1.586;2023-05-23T11:39:52;102213.91;;;22.77;96.76
71165;BME280;58859;55.132;-1.586;2023-05-23T11:42:17;102195.22;;;23.13;99.29
71165;BME280;58859;55.132;-1.586;2023-05-23T11:44:42;102209.72;;;23.73;96.39
71165;BME280;58859;55.132;-1.586;2023-05-23T11:47:09;102209.84;;;23.30;98.75
71165;BME280;58859;55.132;-1.586;2023-05-23T11:49:37;102217.94;;;22.16;100.00
71165;BME280;58859;55.132;-1.586;2023-05-23T11:52:04;102204.06;;;23.20;100.00
71165;BME280;58859;55.132;-1.586;2023-05-23T11:54:31;102201.81;;;22.96;100.00
71165;BME280;58859;55.132;-1.586;2023-05-23T11:56:56;102193.03;;;23.85;100.00
71165;BME280;58859;55.132;-1.586;2023-05-23T11:59:23;102207.09;;;23.17;100.00
71165;BME280;58859;55.132;-1.586;2023-05-23T12:01:50;102202.03;;;22.95;100.00
71165;BME280;58859;55.132;-1.586;2023-05-23T12:04:16;102195.88;;;22.94;100.00
71165;BME280;58859;55.132;-1.586;2023-05-23T12:06:44;102198.09;;;22.90;100.00
71165;BME280;58859;55.132;-1.586;2023-05-23T12:09:10;102181.00;;;22.93;100.00
71165;BME280;58859;55.132;-1.586;2023-05-23T12:11:38;102191.66;;;22.57;100.00
71165;BME280;58859;55.132;-1.586;2023-05-23T12:14:03;102173.97;;;23.13;100.00
71165;BME280;58859;55.132;-1.586;2023-05-23T12:16:34;102178.66;;;22.05;100.00
71165;BME280;58859;55.132;-1.586;2023-05-23T12:19:01;102178.34;;;22.72;100.00
71165;BME280;58859;55.132;-1.586;2023-05-23T12:21:43;102162.28;;;21.37;100.00
71165;BME280;58859;55.132;-1.586;2023-05-23T12:24:20;102165.50;;;21.09;100.00
71165;BME280;58859;55.132;-1.586;2023-05-23T12:26:53;102164.53;;;21.54;100.00
71165;BME280;58859;55.132;-1.586;2023-05-23T12:29:29;102174.03;;;21.19;100.00
71165;BME280;58859;55.132;-1.586;2023-05-23T12:31:57;102174.13;;;21.41;100.00
71165;BME280;58859;55.132;-1.586;2023-05-23T12:34:23;102165.56;;;21.01;100.00
71165;BME280;58859;55.132;-1.586;2023-05-23T12:36:48;102162.09;;;21.01;100.00
71165;BME280;58859;55.132;-1.586;2023-05-23T12:39:14;102171.25;;;20.30;100.00
71165;BME280;58859;55.132;-1.586;2023-05-23T12:41:41;102169.47;;;19.92;100.00
71165;BME280;58859;55.132;-1.586;2023-05-23T12:44:07;102168.78;;;20.29;100.00
71165;BME280;58859;55.132;-1.586;2023-05-23T12:46:33;102164.66;;;19.87;100.00
71165;BME280;58859;55.132;-1.586;2023-05-23T12:48:58;102156.50;;;20.36;100.00
71165;BME280;58859;55.132;-1.586;2023-05-23T12:51:24;102155.41;;;20.90;100.00
71165;BME280;58859;55.132;-1.586;2023-05-23T12:53:49;102171.31;;;21.05;100.00
71165;BME280;58859;55.132;-1.586;2023-05-23T12:56:15;102167.59;;;20.77;100.00
71165;BME280;58859;55.132;-1.586;2023-05-23T12:58:40;102168.88;;;20.35;100.00
71165;BME280;58859;55.132;-1.586;2023-05-23T13:01:06;102171.78;;;19.32;100.00
71165;BME280;58859;55.132;-1.586;2023-05-23T13:03:31;102165.56;;;18.60;100.00